Time;durP1;ratioP1;P1;durP2;ratioP2;P2;SDS_P1;SDS_P2;PMS_P1;PMS_P2;Temp;Humidity;BMP_temperature;BMP_pressure;BME280_temperature;BME280_humidity;BME280_pressure;Samples;Min_cycle;Max_cycle;Signal;HPM_P1;HPM_P2
2023/02/24 00:02:29;;;;;;;;;;;21.50;58.90;;;;;;1547829;75;1673;-60
2023/02/24 00:04:32;;;;;;;;;;;21.60;59.10;;;;;;1534768;75;734;-60
2023/02/24 00:06:36;;;;;;;;;;;21.60;59.20;;;;;;1536756;76;685;-60
2023/02/24 00:08:41;;;;;;;;;;;21.60;58.90;;;;;;1548031;74;1915;-60
2023/02/24 00:10:42;;;;;;;;;;;21.60;58.80;;;;;;1557396;75;1533;-59
2023/02/24 00:12:48;;;;;;;;;;;21.60;58.80;;;;;;1551506;75;679;-60
2023/02/24 00:14:50;;;;;;;;;;;21.70;58.70;;;;;;1550686;75;821;-59
2023/02/24 00:16:52;;;;;;;;;;;21.70;58.70;;;;;;1559851;75;769;-61
2023/02/24 00:18:54;;;;;;;;;;;21.80;58.60;;;;;;1561468;75;725;-65
2023/02/24 00:20:56;;;;;;;;;;;21.70;58.20;;;;;;1541558;76;1127;-60
2023/02/24 00:22:59;;;;;;;;;;;21.80;58.10;;;;;;1525361;76;693;-60
2023/02/24 00:25:02;;;;;;;;;;;21.80;58.00;;;;;;1551369;76;1561;-60
2023/02/24 00:27:10;;;;;;;;;;;21.80;58.00;;;;;;1544614;76;697;-60
2023/02/24 00:29:12;;;;;;;;;;;21.80;57.90;;;;;;1547022;76;1925;-60
2023/02/24 00:31:15;;;;;;;;;;;21.80;57.70;;;;;;1550140;75;1135;-60
2023/02/24 00:33:21;;;;;;;;;;;21.90;58.00;;;;;;1541428;76;716;-60
2023/02/24 00:35:21;;;;;;;;;;;21.80;58.50;;;;;;1546600;76;1624;-61
2023/02/24 00:37:23;;;;;;;;;;;21.80;58.10;;;;;;1560395;76;767;-61
2023/02/24 00:39:32;;;;;;;;;;;21.70;58.60;;;;;;1547496;76;1633;-60
2023/02/24 00:41:31;;;;;;;;;;;21.80;58.50;;;;;;1540688;76;1643;-60
2023/02/24 00:43:36;;;;;;;;;;;21.80;58.10;;;;;;1551752;76;675;-60
2023/02/24 00:45:38;;;;;;;;;;;21.90;58.30;;;;;;1543857;75;1473;-60
2023/02/24 00:47:39;;;;;;;;;;;21.80;58.10;;;;;;1540342;76;676;-61
2023/02/24 00:49:42;;;;;;;;;;;21.90;58.30;;;;;;1546174;76;1937;-60
2023/02/24 00:51:45;;;;;;;;;;;21.90;58.20;;;;;;1546724;76;1186;-60
2023/02/24 00:53:47;;;;;;;;;;;21.80;58.10;;;;;;1545805;76;1533;-60
2023/02/24 00:55:50;;;;;;;;;;;21.90;58.20;;;;;;1550137;76;707;-60
2023/02/24 00:57:52;;;;;;;;;;;21.80;58.20;;;;;;1540514;76;1653;-62
2023/02/24 00:59:57;;;;;;;;;;;21.80;58.10;;;;;;1540317;76;731;-61
2023/02/24 01:01:57;;;;;;;;;;;21.80;58.10;;;;;;1546042;75;1439;-61
2023/02/24 01:04:04;;;;;;;;;;;21.80;58.50;;;;;;1544354;76;789;-60
2023/02/24 01:06:05;;;;;;;;;;;21.90;58.30;;;;;;1542624;76;1480;-60
2023/02/24 01:08:07;;;;;;;;;;;21.80;58.10;;;;;;1548595;76;1939;-60
2023/02/24 01:10:11;;;;;;;;;;;21.90;58.20;;;;;;1543968;76;798;-61
2023/02/24 01:14:33;;;;;;;;;;;21.90;58.10;;;;;;1543369;76;838;-61
2023/02/24 01:16:35;;;;;;;;;;;21.80;58.00;;;;;;1540138;76;703;-61
2023/02/24 01:18:37;;;;;;;;;;;21.80;58.00;;;;;;1541951;76;712;-60
2023/02/24 01:20:39;;;;;;;;;;;21.80;57.90;;;;;;1542408;76;1622;-62
2023/02/24 01:22:40;;;;;;;;;;;21.80;58.10;;;;;;1542610;75;717;-61
2023/02/24 01:24:43;;;;;;;;;;;21.80;58.60;;;;;;1540447;75;668;-60
2023/02/24 01:26:45;;;;;;;;;;;21.70;58.60;;;;;;1540508;76;701;-60
2023/02/24 01:28:47;;;;;;;;;;;21.70;58.80;;;;;;1543259;75;1941;-61
2023/02/24 01:30:48;;;;;;;;;;;21.70;58.80;;;;;;1542735;76;1157;-63
2023/02/24 01:32:50;;;;;;;;;;;21.70;59.10;;;;;;1542377;76;739;-65
2023/02/24 01:34:52;;;;;;;;;;;21.60;59.00;;;;;;1545885;76;1552;-66
2023/02/24 01:36:54;;;;;;;;;;;21.70;58.90;;;;;;1552547;76;717;-67
2023/02/24 01:38:56;;;;;;;;;;;21.60;59.30;;;;;;1544698;75;723;-62
2023/02/24 01:40:58;;;;;;;;;;;21.70;59.20;;;;;;1546443;76;1154;-64
2023/02/24 01:43:00;;;;;;;;;;;21.60;59.40;;;;;;1542964;76;699;-65
2023/02/24 01:45:04;;;;;;;;;;;21.60;59.00;;;;;;1548977;76;906;-62
2023/02/24 01:47:06;;;;;;;;;;;21.70;58.90;;;;;;1546668;75;680;-66
2023/02/24 01:49:29;;;;;;;;;;;21.70;58.90;;;;;;1544227;75;1945;-63
2023/02/24 01:51:34;;;;;;;;;;;21.70;58.80;;;;;;1547752;76;1726;-62
2023/02/24 01:53:35;;;;;;;;;;;21.70;58.90;;;;;;1539524;76;709;-66
2023/02/24 01:55:39;;;;;;;;;;;21.70;58.80;;;;;;1541663;76;675;-62
2023/02/24 01:57:41;;;;;;;;;;;21.70;58.80;;;;;;1543989;76;610;-65
2023/02/24 01:59:44;;;;;;;;;;;21.70;58.70;;;;;;1538331;75;713;-62
2023/02/24 02:01:46;;;;;;;;;;;21.80;58.80;;;;;;1542245;75;1150;-64
2023/02/24 02:03:48;;;;;;;;;;;21.70;58.70;;;;;;1547901;75;1573;-67
2023/02/24 02:05:50;;;;;;;;;;;21.70;58.70;;;;;;1544166;76;760;-63
2023/02/24 02:07:52;;;;;;;;;;;21.70;58.60;;;;;;1548440;75;797;-62
2023/02/24 02:09:54;;;;;;;;;;;21.70;58.50;;;;;;1540933;75;1928;-63
2023/02/24 02:11:56;;;;;;;;;;;21.80;58.50;;;;;;1545386;76;1111;-63
2023/02/24 02:13:58;;;;;;;;;;;21.70;58.10;;;;;;1540102;75;720;-63
2023/02/24 02:16:04;;;;;;;;;;;21.80;58.00;;;;;;1547803;75;706;-64
2023/02/24 02:18:08;;;;;;;;;;;21.70;57.90;;;;;;1543135;76;1593;-63
2023/02/24 02:20:14;;;;;;;;;;;21.80;58.10;;;;;;1549121;76;1776;-66
2023/02/24 02:22:29;;;;;;;;;;;21.80;57.90;;;;;;1541475;75;1449;-62
2023/02/24 02:24:32;;;;;;;;;;;21.80;57.90;;;;;;1540050;76;896;-62
2023/02/24 02:26:52;;;;;;;;;;;21.80;57.90;;;;;;1540594;76;739;-68
2023/02/24 02:29:12;;;;;;;;;;;21.80;58.00;;;;;;1539596;75;1920;-67
2023/02/24 02:31:16;;;;;;;;;;;21.80;58.00;;;;;;1540923;76;1613;-65
2023/02/24 02:33:38;;;;;;;;;;;21.80;58.00;;;;;;1540737;76;1780;-63
2023/02/24 02:35:53;;;;;;;;;;;21.80;58.10;;;;;;1540866;76;738;-62
2023/02/24 02:37:55;;;;;;;;;;;21.70;58.20;;;;;;1510416;75;1144;-65
2023/02/24 02:40:06;;;;;;;;;;;21.70;58.60;;;;;;1539550;76;746;-63
2023/02/24 02:42:13;;;;;;;;;;;21.80;58.50;;;;;;1539256;76;1617;-64
2023/02/24 02:44:17;;;;;;;;;;;21.70;58.50;;;;;;1547598;76;680;-63
2023/02/24 02:46:32;;;;;;;;;;;21.80;58.20;;;;;;1539797;76;2108;-63
2023/02/24 02:48:29;;;;;;;;;;;21.80;58.10;;;;;;1534441;76;1859;-63
2023/02/24 02:50:34;;;;;;;;;;;21.80;58.10;;;;;;1540654;76;1127;-62
2023/02/24 02:52:46;;;;;;;;;;;21.80;58.10;;;;;;1540996;76;634;-65
2023/02/24 02:54:50;;;;;;;;;;;21.70;58.20;;;;;;1541116;76;736;-65
2023/02/24 02:56:58;;;;;;;;;;;21.70;58.20;;;;;;1545335;76;1339;-62
2023/02/24 02:58:59;;;;;;;;;;;21.70;58.10;;;;;;1543689;75;1554;-62
2023/02/24 03:01:01;;;;;;;;;;;21.70;58.20;;;;;;1542352;76;1148;-68
2023/02/24 03:03:05;;;;;;;;;;;21.70;58.20;;;;;;1553672;76;741;-63
2023/02/24 03:05:09;;;;;;;;;;;21.80;58.20;;;;;;1544294;76;1742;-62
2023/02/24 03:07:11;;;;;;;;;;;21.80;58.10;;;;;;1543805;76;636;-63
2023/02/24 03:09:17;;;;;;;;;;;21.70;58.10;;;;;;1541502;76;1904;-62
2023/02/24 03:11:19;;;;;;;;;;;21.80;58.10;;;;;;1539150;76;1157;-67
2023/02/24 03:13:22;;;;;;;;;;;21.80;58.00;;;;;;1543483;76;1529;-62
2023/02/24 03:15:25;;;;;;;;;;;21.80;58.00;;;;;;1543548;75;721;-62
2023/02/24 03:17:28;;;;;;;;;;;21.70;58.00;;;;;;1539385;76;612;-62
2023/02/24 03:19:31;;;;;;;;;;;21.80;58.10;;;;;;1540893;76;680;-62
2023/02/24 03:21:35;;;;;;;;;;;21.70;58.10;;;;;;1539723;76;1149;-62
2023/02/24 03:23:37;;;;;;;;;;;21.80;58.10;;;;;;1546599;76;1860;-63
2023/02/24 03:25:43;;;;;;;;;;;21.80;58.10;;;;;;1539113;75;665;-62
2023/02/24 03:27:46;;;;;;;;;;;21.70;58.20;;;;;;1544834;76;1609;-63
2023/02/24 03:29:52;;;;;;;;;;;21.70;58.70;;;;;;1540177;76;1967;-62
2023/02/24 03:32:03;;;;;;;;;;;21.70;58.70;;;;;;1543171;76;1141;-63
2023/02/24 03:34:06;;;;;;;;;;;21.60;58.70;;;;;;1540970;75;690;-62
2023/02/24 03:36:08;;;;;;;;;;;21.70;58.90;;;;;;1540330;76;704;-64
2023/02/24 03:38:10;;;;;;;;;;;21.60;58.80;;;;;;1546369;76;740;-65
2023/02/24 03:40:15;;;;;;;;;;;21.60;58.70;;;;;;1541374;76;784;-63
2023/02/24 03:42:17;;;;;;;;;;;21.70;58.70;;;;;;1540409;75;1557;-61
2023/02/24 03:44:19;;;;;;;;;;;21.70;58.60;;;;;;1540275;76;758;-61
2023/02/24 03:46:21;;;;;;;;;;;21.70;58.60;;;;;;1540259;76;693;-61
2023/02/24 03:48:23;;;;;;;;;;;21.70;58.50;;;;;;1541556;76;671;-61
2023/02/24 03:50:30;;;;;;;;;;;21.70;58.20;;;;;;1540277;76;1922;-66
2023/02/24 03:52:31;;;;;;;;;;;21.70;58.50;;;;;;1548511;75;1630;-65
2023/02/24 03:54:51;;;;;;;;;;;21.70;58.50;;;;;;1543415;76;772;-70
2023/02/24 03:56:57;;;;;;;;;;;21.70;58.60;;;;;;1539992;76;1598;-64
2023/02/24 03:59:17;;;;;;;;;;;21.70;58.50;;;;;;1541712;76;681;-62
2023/02/24 04:01:27;;;;;;;;;;;21.70;58.50;;;;;;1540406;76;1201;-62
2023/02/24 04:03:36;;;;;;;;;;;21.70;58.60;;;;;;1542168;76;1894;-62
2023/02/24 04:05:44;;;;;;;;;;;21.70;58.70;;;;;;1544347;76;688;-63
2023/02/24 04:07:44;;;;;;;;;;;21.70;58.70;;;;;;1545403;76;1628;-63
2023/02/24 04:09:55;;;;;;;;;;;21.70;58.70;;;;;;1553371;76;1936;-62
2023/02/24 04:12:01;;;;;;;;;;;21.60;58.70;;;;;;1540572;75;1500;-63
2023/02/24 04:14:08;;;;;;;;;;;21.70;58.70;;;;;;1539911;76;1538;-62
2023/02/24 04:16:35;;;;;;;;;;;21.60;58.60;;;;;;1539388;76;1042;-63
2023/02/24 04:18:32;;;;;;;;;;;21.70;58.70;;;;;;1552865;76;1613;-63
2023/02/24 04:20:35;;;;;;;;;;;21.70;58.70;;;;;;1540068;76;1173;-62
2023/02/24 04:22:37;;;;;;;;;;;21.70;58.60;;;;;;1542612;75;706;-63
2023/02/24 04:24:39;;;;;;;;;;;21.70;58.70;;;;;;1540422;76;1358;-62
2023/02/24 04:26:41;;;;;;;;;;;21.70;58.70;;;;;;1546632;76;702;-62
2023/02/24 04:28:43;;;;;;;;;;;21.70;58.70;;;;;;1542042;76;944;-67
2023/02/24 04:30:45;;;;;;;;;;;21.70;58.80;;;;;;1541424;76;1939;-62
2023/02/24 04:32:48;;;;;;;;;;;21.70;58.70;;;;;;1543911;76;687;-65
2023/02/24 04:34:50;;;;;;;;;;;21.70;58.70;;;;;;1542584;76;676;-62
2023/02/24 04:36:52;;;;;;;;;;;21.70;58.70;;;;;;1547969;76;710;-62
2023/02/24 04:38:54;;;;;;;;;;;21.70;58.60;;;;;;1542015;76;1682;-62
2023/02/24 04:40:56;;;;;;;;;;;21.70;58.60;;;;;;1553274;76;1156;-62
2023/02/24 04:42:58;;;;;;;;;;;21.70;58.60;;;;;;1539957;76;666;-66
2023/02/24 04:45:00;;;;;;;;;;;21.70;58.60;;;;;;1539962;76;660;-62
2023/02/24 04:47:02;;;;;;;;;;;21.70;58.60;;;;;;1549876;76;685;-63
2023/02/24 04:49:04;;;;;;;;;;;21.70;58.60;;;;;;1543335;76;683;-63
2023/02/24 04:51:06;;;;;;;;;;;21.70;58.60;;;;;;1551653;76;1946;-64
2023/02/24 04:53:09;;;;;;;;;;;21.70;58.50;;;;;;1545662;76;1617;-64
2023/02/24 04:55:10;;;;;;;;;;;21.70;58.60;;;;;;1543185;76;687;-62
2023/02/24 04:57:13;;;;;;;;;;;21.70;58.60;;;;;;1541489;76;729;-62
2023/02/24 04:59:15;;;;;;;;;;;21.70;58.70;;;;;;1545208;76;760;-62
2023/02/24 05:01:17;;;;;;;;;;;21.70;58.80;;;;;;1543204;76;1134;-62
2023/02/24 05:03:19;;;;;;;;;;;21.70;58.80;;;;;;1544953;76;706;-63
2023/02/24 05:05:27;;;;;;;;;;;21.60;58.90;;;;;;1547246;76;690;-65
2023/02/24 05:07:29;;;;;;;;;;;21.70;58.90;;;;;;1543727;76;1795;-65
2023/02/24 05:09:31;;;;;;;;;;;21.60;58.70;;;;;;1539918;76;1941;-63
2023/02/24 05:11:33;;;;;;;;;;;21.70;58.80;;;;;;1540088;76;1150;-62
2023/02/24 05:13:36;;;;;;;;;;;21.70;58.70;;;;;;1539850;76;742;-62
2023/02/24 05:15:39;;;;;;;;;;;21.70;58.90;;;;;;1539745;76;671;-63
2023/02/24 05:17:41;;;;;;;;;;;21.50;60.20;;;;;;1540029;76;735;-62
2023/02/24 05:22:03;;;;;;;;;;;21.40;59.80;;;;;;1540036;76;1186;-65
2023/02/24 05:24:05;;;;;;;;;;;21.50;59.60;;;;;;1541064;76;673;-64
2023/02/24 05:26:07;;;;;;;;;;;21.40;59.50;;;;;;1545447;76;729;-63
2023/02/24 05:28:10;;;;;;;;;;;21.60;59.40;;;;;;1541639;76;712;-63
2023/02/24 05:30:13;;;;;;;;;;;21.60;59.20;;;;;;1541423;76;1919;-64
2023/02/24 05:32:15;;;;;;;;;;;21.50;59.20;;;;;;1543165;76;733;-65
2023/02/24 05:34:17;;;;;;;;;;;21.60;59.10;;;;;;1543090;76;1360;-65
2023/02/24 05:36:19;;;;;;;;;;;21.60;59.00;;;;;;1543621;76;687;-63
2023/02/24 05:38:21;;;;;;;;;;;21.70;59.00;;;;;;1542109;76;832;-63
2023/02/24 05:40:24;;;;;;;;;;;21.70;58.90;;;;;;1541264;76;1154;-62
2023/02/24 05:42:26;;;;;;;;;;;21.70;58.90;;;;;;1540065;76;687;-65
2023/02/24 05:44:30;;;;;;;;;;;21.60;58.70;;;;;;1548574;75;1064;-63
2023/02/24 05:46:32;;;;;;;;;;;21.70;58.70;;;;;;1541324;76;1172;-63
2023/02/24 05:48:34;;;;;;;;;;;21.70;58.80;;;;;;1542967;75;1600;-64
2023/02/24 05:50:37;;;;;;;;;;;21.50;59.20;;;;;;1539543;76;1914;-64
2023/02/24 05:52:39;;;;;;;;;;;21.50;59.50;;;;;;1543877;75;746;-65
2023/02/24 05:54:42;;;;;;;;;;;21.30;59.70;;;;;;1545583;76;679;-64
2023/02/24 05:56:44;;;;;;;;;;;21.30;60.00;;;;;;1548005;76;686;-65
2023/02/24 05:58:46;;;;;;;;;;;21.30;60.10;;;;;;1543884;76;672;-66
2023/02/24 06:00:49;;;;;;;;;;;21.30;60.00;;;;;;1545739;76;1187;-63
2023/02/24 06:02:51;;;;;;;;;;;21.40;59.90;;;;;;1541689;75;1547;-62
2023/02/24 06:04:54;;;;;;;;;;;21.40;59.90;;;;;;1544420;76;677;-63
2023/02/24 06:06:56;;;;;;;;;;;21.30;60.10;;;;;;1549332;76;719;-63
2023/02/24 06:09:00;;;;;;;;;;;21.30;60.30;;;;;;1545031;75;1068;-63
2023/02/24 06:11:02;;;;;;;;;;;21.30;60.50;;;;;;1541016;76;1919;-64
2023/02/24 06:13:05;;;;;;;;;;;21.20;60.50;;;;;;1545051;76;837;-64
2023/02/24 06:15:07;;;;;;;;;;;21.30;60.40;;;;;;1540649;75;789;-62
2023/02/24 06:17:09;;;;;;;;;;;21.30;60.50;;;;;;1550872;75;1540;-63
2023/02/24 06:19:11;;;;;;;;;;;21.40;60.40;;;;;;1550172;76;724;-63
2023/02/24 06:21:13;;;;;;;;;;;21.50;60.30;;;;;;1539516;76;1147;-62
2023/02/24 06:23:16;;;;;;;;;;;21.50;60.40;;;;;;1539107;75;646;-69
2023/02/24 06:25:18;;;;;;;;;;;21.40;60.10;;;;;;1516834;76;730;-64
2023/02/24 06:27:20;;;;;;;;;;;21.60;60.10;;;;;;1534549;76;631;-62
2023/02/24 06:29:28;;;;;;;;;;;21.60;60.00;;;;;;1538433;75;736;-65
2023/02/24 06:31:26;;;;;;;;;;;21.50;60.00;;;;;;1520344;75;1933;-64
2023/02/24 06:33:29;;;;;;;;;;;21.40;60.10;;;;;;1527757;76;724;-65
2023/02/24 06:35:31;;;;;;;;;;;21.50;60.20;;;;;;1543955;76;681;-63
2023/02/24 06:37:34;;;;;;;;;;;21.50;60.40;;;;;;1535132;76;1068;-64
2023/02/24 06:39:36;;;;;;;;;;;21.50;60.10;;;;;;1536502;76;659;-65
2023/02/24 06:41:38;;;;;;;;;;;21.50;59.70;;;;;;1533816;76;1142;-68
2023/02/24 06:43:42;;;;;;;;;;;21.50;59.70;;;;;;1525549;76;729;-64
2023/02/24 06:45:44;;;;;;;;;;;21.50;59.60;;;;;;1523189;76;1577;-63
2023/02/24 06:47:47;;;;;;;;;;;21.60;59.50;;;;;;1540682;76;726;-63
2023/02/24 06:49:49;;;;;;;;;;;21.70;59.30;;;;;;1539198;76;690;-63
2023/02/24 06:51:51;;;;;;;;;;;21.70;59.20;;;;;;1546462;75;1929;-65
2023/02/24 06:53:54;;;;;;;;;;;21.70;59.00;;;;;;1539363;76;681;-64
2023/02/24 06:55:56;;;;;;;;;;;21.70;58.90;;;;;;1544812;76;666;-64
2023/02/24 06:58:02;;;;;;;;;;;21.80;58.70;;;;;;1541067;76;695;-63
2023/02/24 07:00:26;;;;;;;;;;;21.70;58.60;;;;;;1541576;75;1640;-63
2023/02/24 07:02:06;;;;;;;;;;;21.70;58.60;;;;;;1536965;75;1286;-66
2023/02/24 07:04:18;;;;;;;;;;;21.60;59.10;;;;;;1553047;76;729;-65
2023/02/24 07:06:22;;;;;;;;;;;21.60;59.40;;;;;;1540303;76;1451;-63
2023/02/24 07:08:26;;;;;;;;;;;21.70;59.50;;;;;;1539650;76;737;-66
2023/02/24 07:10:28;;;;;;;;;;;21.70;59.20;;;;;;1539902;76;1916;-63
2023/02/24 07:12:30;;;;;;;;;;;21.70;59.10;;;;;;1545383;76;1477;-63
2023/02/24 07:14:32;;;;;;;;;;;21.70;58.90;;;;;;1543067;76;798;-64
2023/02/24 07:16:34;;;;;;;;;;;21.70;58.80;;;;;;1542648;76;687;-63
2023/02/24 07:18:39;;;;;;;;;;;21.70;58.70;;;;;;1539411;76;759;-63
2023/02/24 07:20:44;;;;;;;;;;;21.70;58.60;;;;;;1543354;76;1554;-65
2023/02/24 07:22:44;;;;;;;;;;;21.70;58.60;;;;;;1550151;76;1672;-64
2023/02/24 07:24:46;;;;;;;;;;;21.80;58.60;;;;;;1541159;76;670;-63
2023/02/24 07:26:50;;;;;;;;;;;21.70;58.10;;;;;;1548001;76;1549;-63
2023/02/24 07:28:53;;;;;;;;;;;21.70;58.00;;;;;;1553438;76;1699;-67
2023/02/24 07:30:56;;;;;;;;;;;21.80;58.00;;;;;;1547908;76;1935;-63
2023/02/24 07:32:57;;;;;;;;;;;21.80;57.90;;;;;;1544268;76;736;-63
2023/02/24 07:34:59;;;;;;;;;;;21.80;57.80;;;;;;1547793;75;761;-65
2023/02/24 07:37:06;;;;;;;;;;;21.70;57.80;;;;;;1546671;76;718;-63
2023/02/24 07:39:08;;;;;;;;;;;21.70;57.80;;;;;;1540595;76;1671;-67
2023/02/24 07:41:10;;;;;;;;;;;21.80;57.80;;;;;;1552115;76;1498;-63
2023/02/24 07:43:14;;;;;;;;;;;21.70;57.70;;;;;;1546899;75;725;-65
2023/02/24 07:45:15;;;;;;;;;;;21.70;57.80;;;;;;1546352;75;1672;-65
2023/02/24 07:47:17;;;;;;;;;;;21.70;57.80;;;;;;1544588;76;676;-67
2023/02/24 07:49:24;;;;;;;;;;;21.70;57.80;;;;;;1556376;76;1621;-66
2023/02/24 07:51:25;;;;;;;;;;;21.70;57.80;;;;;;1540287;76;1914;-63
2023/02/24 07:53:27;;;;;;;;;;;21.70;57.90;;;;;;1542424;75;772;-62
2023/02/24 07:55:30;;;;;;;;;;;21.70;59.70;;;;;;1546458;76;1248;-64
2023/02/24 07:57:32;;;;;;;;;;;21.60;58.70;;;;;;1547701;75;944;-64
2023/02/24 07:59:35;;;;;;;;;;;21.70;58.70;;;;;;1544324;75;699;-65
2023/02/24 08:01:48;;;;;;;;;;;21.70;58.50;;;;;;1541799;76;1885;-60
2023/02/24 08:03:44;;;;;;;;;;;21.70;58.20;;;;;;1541061;76;1752;-60
2023/02/24 08:05:46;;;;;;;;;;;21.70;58.10;;;;;;1545395;75;725;-60
2023/02/24 08:07:48;;;;;;;;;;;21.60;58.00;;;;;;1543469;76;683;-60
2023/02/24 08:10:09;;;;;;;;;;;21.70;58.10;;;;;;1545817;76;1592;-60
2023/02/24 08:12:16;;;;;;;;;;;21.70;58.00;;;;;;1544471;76;1943;-64
2023/02/24 08:14:18;;;;;;;;;;;21.70;58.00;;;;;;1549190;75;1969;-58
2023/02/24 08:16:22;;;;;;;;;;;21.70;58.00;;;;;;1540121;76;788;-60
2023/02/24 08:18:27;;;;;;;;;;;21.70;58.00;;;;;;1559505;76;735;-59
2023/02/24 08:20:34;;;;;;;;;;;21.70;58.00;;;;;;1539943;76;1691;-58
2023/02/24 08:22:36;;;;;;;;;;;21.70;58.00;;;;;;1552355;76;1565;-58
2023/02/24 08:24:35;;;;;;;;;;;21.80;58.00;;;;;;1541434;76;1503;-59
2023/02/24 08:26:43;;;;;;;;;;;21.70;58.00;;;;;;1544355;75;671;-60
2023/02/24 08:28:40;;;;;;;;;;;21.70;58.00;;;;;;1538696;76;1600;-60
2023/02/24 08:30:45;;;;;;;;;;;21.70;58.00;;;;;;1544748;75;1955;-59
2023/02/24 08:32:51;;;;;;;;;;;21.70;58.00;;;;;;1544005;75;769;-59
2023/02/24 08:34:55;;;;;;;;;;;21.70;58.00;;;;;;1555391;76;1566;-59
2023/02/24 08:36:54;;;;;;;;;;;21.70;58.00;;;;;;1542313;76;1827;-61
2023/02/24 08:38:58;;;;;;;;;;;21.70;57.90;;;;;;1543322;76;704;-59
2023/02/24 08:41:03;;;;;;;;;;;21.70;57.80;;;;;;1549402;76;1370;-60
2023/02/24 08:43:29;;;;;;;;;;;21.70;57.90;;;;;;1549268;75;1590;-60
2023/02/24 08:45:20;;;;;;;;;;;21.70;57.80;;;;;;1536168;76;1632;-59
2023/02/24 08:47:29;;;;;;;;;;;21.70;57.90;;;;;;1551599;76;727;-59
2023/02/24 08:49:27;;;;;;;;;;;21.60;57.80;;;;;;1542568;75;1597;-58
2023/02/24 08:51:29;;;;;;;;;;;21.60;57.80;;;;;;1544018;75;1952;-60
2023/02/24 08:53:31;;;;;;;;;;;21.70;57.90;;;;;;1543779;76;722;-59
2023/02/24 08:55:38;;;;;;;;;;;21.70;57.80;;;;;;1540040;76;699;-59
2023/02/24 08:57:37;;;;;;;;;;;21.70;57.90;;;;;;1540914;75;1619;-59
2023/02/24 08:59:47;;;;;;;;;;;21.60;57.80;;;;;;1539743;76;696;-58
2023/02/24 09:01:53;;;;;;;;;;;21.60;57.80;;;;;;1544905;76;1625;-59
2023/02/24 09:03:46;;;;;;;;;;;21.60;57.80;;;;;;1540333;76;1639;-58
2023/02/24 09:05:49;;;;;;;;;;;21.70;57.90;;;;;;1542087;76;1584;-59
2023/02/24 09:07:53;;;;;;;;;;;21.60;57.80;;;;;;1542872;76;769;-60
2023/02/24 09:09:55;;;;;;;;;;;21.60;57.80;;;;;;1548421;76;2004;-58
2023/02/24 09:11:57;;;;;;;;;;;21.60;57.90;;;;;;1540853;76;1926;-59
2023/02/24 09:14:00;;;;;;;;;;;21.60;57.90;;;;;;1540968;76;715;-58
2023/02/24 09:16:02;;;;;;;;;;;21.60;58.00;;;;;;1539593;76;688;-59
2023/02/24 09:18:13;;;;;;;;;;;21.60;58.00;;;;;;1544174;75;955;-60
2023/02/24 09:22:30;;;;;;;;;;;21.60;58.00;;;;;;1544197;76;790;-60
2023/02/24 09:24:32;;;;;;;;;;;21.60;58.00;;;;;;1550746;76;612;-61
2023/02/24 09:26:42;;;;;;;;;;;21.60;58.10;;;;;;1544144;75;728;-60
2023/02/24 09:28:47;;;;;;;;;;;21.60;58.50;;;;;;1539549;75;1495;-61
2023/02/24 09:30:52;;;;;;;;;;;21.60;58.50;;;;;;1538354;76;1628;-60
2023/02/24 09:32:46;;;;;;;;;;;21.60;58.60;;;;;;1536407;75;1990;-59
2023/02/24 09:34:48;;;;;;;;;;;21.50;58.60;;;;;;1541862;76;791;-59
2023/02/24 09:37:01;;;;;;;;;;;21.60;58.70;;;;;;1539697;76;666;-59
2023/02/24 09:41:05;;;;;;;;;;;21.60;58.70;;;;;;1542210;76;1151;-59
2023/02/24 09:43:16;;;;;;;;;;;21.60;58.80;;;;;;1540891;76;1899;-60
2023/02/24 09:45:31;;;;;;;;;;;21.50;58.70;;;;;;1538777;76;1635;-60
2023/02/24 09:49:55;;;;;;;;;;;21.50;58.80;;;;;;1551741;76;1003;-58
2023/02/24 09:51:59;;;;;;;;;;;21.50;58.90;;;;;;1543029;76;1983;-60
2023/02/24 09:54:00;;;;;;;;;;;21.50;58.90;;;;;;1539453;76;1733;-60
2023/02/24 09:56:03;;;;;;;;;;;21.50;59.00;;;;;;1539406;76;694;-61
2023/02/24 10:00:32;;;;;;;;;;;21.50;59.10;;;;;;1542801;76;1153;-62
2023/02/24 10:02:42;;;;;;;;;;;21.50;59.10;;;;;;1538316;76;2086;-61
2023/02/24 10:04:52;;;;;;;;;;;21.50;59.10;;;;;;1539627;76;696;-62
2023/02/24 10:07:01;;;;;;;;;;;21.50;59.20;;;;;;1547840;76;1636;-59
2023/02/24 10:09:14;;;;;;;;;;;21.50;59.20;;;;;;1539862;76;835;-61
2023/02/24 10:11:09;;;;;;;;;;;21.40;59.10;;;;;;1536939;76;1943;-62
2023/02/24 10:13:29;;;;;;;;;;;21.50;59.20;;;;;;1545987;76;696;-60
2023/02/24 10:17:46;;;;;;;;;;;21.50;59.20;;;;;;1540285;76;1652;-59
2023/02/24 10:19:55;;;;;;;;;;;21.50;59.20;;;;;;1556433;76;1532;-62
2023/02/24 10:22:01;;;;;;;;;;;21.40;59.20;;;;;;1542724;76;1650;-61
2023/02/24 10:24:05;;;;;;;;;;;21.50;59.30;;;;;;1539921;76;695;-62
2023/02/24 10:26:30;;;;;;;;;;;21.50;59.30;;;;;;1543250;76;1973;-62
2023/02/24 10:28:40;;;;;;;;;;;21.40;59.20;;;;;;1543418;75;717;-61
2023/02/24 10:30:45;;;;;;;;;;;21.40;59.20;;;;;;1557734;75;1555;-62
2023/02/24 10:32:49;;;;;;;;;;;21.40;59.20;;;;;;1540507;76;2021;-62
2023/02/24 10:34:51;;;;;;;;;;;21.50;59.30;;;;;;1552883;76;681;-61
2023/02/24 10:36:56;;;;;;;;;;;21.50;59.20;;;;;;1540135;75;681;-60
2023/02/24 10:38:56;;;;;;;;;;;21.50;59.30;;;;;;1544366;75;1615;-62
2023/02/24 10:40:58;;;;;;;;;;;21.50;59.30;;;;;;1544393;76;1105;-62
2023/02/24 10:43:09;;;;;;;;;;;21.50;59.30;;;;;;1539588;76;733;-62
2023/02/24 10:45:10;;;;;;;;;;;21.40;59.10;;;;;;1546255;75;1673;-60
2023/02/24 10:47:12;;;;;;;;;;;21.50;59.30;;;;;;1544295;75;871;-63
2023/02/24 10:49:15;;;;;;;;;;;21.50;59.20;;;;;;1546966;76;693;-63
2023/02/24 10:51:29;;;;;;;;;;;21.50;59.30;;;;;;1539249;75;1917;-61
2023/02/24 10:57:54;;;;;;;;;;;21.50;59.30;;;;;;1539580;76;1366;-62
2023/02/24 11:02:28;;;;;;;;;;;21.50;59.60;;;;;;1542077;76;1659;-61
2023/02/24 11:04:32;;;;;;;;;;;21.40;59.40;;;;;;1522211;76;685;-63
2023/02/24 11:08:53;;;;;;;;;;;21.50;59.40;;;;;;1545195;76;730;-62
2023/02/24 11:10:57;;;;;;;;;;;21.50;59.40;;;;;;1546024;75;1702;-63
2023/02/24 11:17:58;;;;;;;;;;;21.60;59.30;;;;;;1540078;75;1659;-60
2023/02/24 11:20:00;;;;;;;;;;;21.50;59.30;;;;;;1543441;75;1542;-61
2023/02/24 11:22:02;;;;;;;;;;;21.50;59.40;;;;;;1542697;75;1138;-63
2023/02/24 11:24:04;;;;;;;;;;;21.50;59.50;;;;;;1543162;75;1302;-62
2023/02/24 11:26:18;;;;;;;;;;;21.50;59.70;;;;;;1545495;75;1529;-62
2023/02/24 11:28:39;;;;;;;;;;;21.50;59.80;;;;;;1543826;75;1526;-62
2023/02/24 11:30:42;;;;;;;;;;;21.50;60.10;;;;;;1540251;75;1555;-62
2023/02/24 11:32:48;;;;;;;;;;;21.50;60.50;;;;;;1542980;76;1933;-63
2023/02/24 11:34:58;;;;;;;;;;;21.50;61.20;;;;;;1544543;76;1668;-60
2023/02/24 11:37:08;;;;;;;;;;;21.50;61.90;;;;;;1545877;76;1786;-63
2023/02/24 11:39:28;;;;;;;;;;;21.50;61.80;;;;;;1540613;75;1569;-61
2023/02/24 11:41:30;;;;;;;;;;;21.50;62.40;;;;;;1542356;75;1497;-61
2023/02/24 11:43:33;;;;;;;;;;;21.50;62.80;;;;;;1545090;75;1506;-61
2023/02/24 11:45:53;;;;;;;;;;;21.50;63.00;;;;;;1547925;75;1545;-61
2023/02/24 11:48:13;;;;;;;;;;;21.50;63.20;;;;;;1540620;76;1098;-61
2023/02/24 11:50:35;;;;;;;;;;;21.40;63.50;;;;;;1545697;76;1390;-61
2023/02/24 11:52:37;;;;;;;;;;;21.50;63.60;;;;;;1543770;76;1932;-60
2023/02/24 11:54:40;;;;;;;;;;;21.50;63.60;;;;;;1547420;76;1523;-61
2023/02/24 11:56:44;;;;;;;;;;;21.50;63.40;;;;;;1543017;76;1527;-61
2023/02/24 11:58:50;;;;;;;;;;;21.50;63.20;;;;;;1543847;75;1137;-61
2023/02/24 12:00:53;;;;;;;;;;;21.60;62.90;;;;;;1543956;76;1523;-63
2023/02/24 12:03:03;;;;;;;;;;;21.50;62.70;;;;;;1553173;76;1672;-62
2023/02/24 12:05:15;;;;;;;;;;;21.60;62.60;;;;;;1544182;76;1500;-61
2023/02/24 12:07:28;;;;;;;;;;;21.60;62.40;;;;;;1546023;75;1493;-62
2023/02/24 12:09:31;;;;;;;;;;;21.60;62.10;;;;;;1541811;76;1180;-62
2023/02/24 12:11:34;;;;;;;;;;;21.60;62.00;;;;;;1540634;76;1433;-62
2023/02/24 12:13:38;;;;;;;;;;;21.60;61.80;;;;;;1549784;75;1937;-61
2023/02/24 12:15:41;;;;;;;;;;;21.60;61.70;;;;;;1544058;76;1180;-62
2023/02/24 12:17:45;;;;;;;;;;;21.60;61.60;;;;;;1540830;76;1512;-61
2023/02/24 12:19:53;;;;;;;;;;;21.60;61.30;;;;;;1549909;76;1336;-61
2023/02/24 12:22:01;;;;;;;;;;;21.60;61.30;;;;;;1539931;75;1551;-60
2023/02/24 12:24:05;;;;;;;;;;;21.60;61.20;;;;;;1553473;76;1636;-61
2023/02/24 12:26:17;;;;;;;;;;;21.60;61.00;;;;;;1544609;76;1841;-61
2023/02/24 12:28:26;;;;;;;;;;;21.50;60.90;;;;;;1553702;75;1297;-61
2023/02/24 12:30:35;;;;;;;;;;;21.60;60.70;;;;;;1544752;75;1384;-61
2023/02/24 12:32:40;;;;;;;;;;;21.60;60.70;;;;;;1547128;76;1923;-60
2023/02/24 12:34:52;;;;;;;;;;;21.70;60.60;;;;;;1487033;76;1259;-61
2023/02/24 12:36:59;;;;;;;;;;;21.60;60.50;;;;;;1554478;76;1505;-59
2023/02/24 12:39:05;;;;;;;;;;;21.70;60.30;;;;;;1542292;75;1790;-62
2023/02/24 12:41:19;;;;;;;;;;;21.70;60.20;;;;;;1546028;76;1579;-60
2023/02/24 12:43:24;;;;;;;;;;;21.60;60.40;;;;;;1539717;75;1182;-60
2023/02/24 12:45:46;;;;;;;;;;;21.70;60.30;;;;;;1548672;76;1281;-62
2023/02/24 12:48:08;;;;;;;;;;;21.80;60.00;;;;;;1540706;76;1534;-61
2023/02/24 12:50:18;;;;;;;;;;;21.80;59.70;;;;;;1543094;76;1578;-60
2023/02/24 12:52:24;;;;;;;;;;;21.80;59.60;;;;;;1542148;76;1936;-60